Latest Weather Observations for Biloela

IDQ60801

Issued at 11:05 pm EST Tuesday 16 September 2014 (issued every 30 minutes, with the page automatically refreshed every 10 minutes)

About weather observations | Map of weather stations | Latest weather observations for QLD | Other Formats
Station Details ID: 039089 Name: THANGOOL AIRPORT Lat: -24.49 Lon: 150.57 Height: 193.1 m
Data from the previous 72 hours. | See also: Recent months at Biloela
Date/Time
EST
Temp
°C
App
Temp
°C
Dew
Point
Rel
Hum
%
Delta-T
°C
Wind Press
QNH
hPa
Press
MSL
hPa
Rain
since 9 am
mm
Dir
 
Spd
km/h
Gust
km/h
Spd
kts
Gust
kts
16/11:00pm 14.5 13.7 6.3 58 4.0 ENE 0 6 0 3 1015.9 - 0.0
16/10:30pm 12.7 10.4 5.6 62 3.4 NNW 7 9 4 5 1016.1 - 0.0
16/10:00pm 13.8 12.8 5.4 57 4.0 CALM 0 0 0 0 1015.8 - 0.0
16/09:30pm 15.2 14.2 5.7 53 4.6 CALM 0 0 0 0 1015.7 - 0.0
16/09:00pm 16.9 14.6 5.8 48 5.4 W 7 9 4 5 1015.7 1015.2 0.0
16/08:30pm 18.2 16.0 6.1 45 6.0 WSW 7 9 4 5 1015.5 - 0.0
16/08:00pm 19.9 17.3 4.4 36 7.5 NE 7 13 4 7 1015.1 - 0.0
16/07:30pm 23.4 20.1 6.2 33 8.9 NNE 13 20 7 11 1014.7 - 0.0
16/07:00pm 19.8 17.5 4.7 37 7.4 N 6 7 3 4 1014.0 - 0.0
16/06:30pm 21.8 19.3 4.8 33 8.4 N 7 9 4 5 1013.7 - 0.0
16/06:00pm 24.7 22.2 4.5 27 10.2 N 7 9 4 5 1013.5 1013.0 0.0
16/05:30pm 26.8 23.5 4.6 24 11.3 NNW 11 13 6 7 1013.4 - 0.0
16/05:00pm 27.9 24.9 4.2 22 12.1 N 9 13 5 7 1013.4 - 0.0
16/04:30pm 28.4 24.7 4.6 22 12.3 N 13 22 7 12 1013.3 - 0.0
16/04:00pm 28.8 24.8 5.0 22 12.4 N 15 30 8 16 1013.3 - 0.0
16/03:30pm 28.6 24.2 4.8 22 12.3 N 17 26 9 14 1013.4 - 0.0
16/03:00pm 28.0 23.9 4.3 22 12.1 NNW 15 24 8 13 1013.5 1013.0 0.0
16/02:30pm 28.4 24.9 5.3 23 12.1 NNW 13 24 7 13 1013.7 - 0.0
16/02:00pm 28.6 25.1 5.5 23 12.1 NNW 13 26 7 14 1014.3 - 0.0
16/01:30pm 29.0 25.8 7.0 25 11.9 NNW 13 28 7 15 1014.8 - 0.0
16/01:00pm 28.1 24.3 7.4 27 11.2 NNW 17 26 9 14 1015.4 - 0.0
16/12:30pm 28.1 24.9 8.4 29 10.8 NW 15 24 8 13 1015.8 - 0.0
16/12:00pm 26.6 22.9 8.1 31 10.0 N 17 22 9 12 1016.3 1015.8 0.0
16/11:30am 26.6 23.1 8.6 32 9.9 NNW 17 24 9 13 1017.0 - 0.0
16/11:00am 25.9 23.5 10.1 37 8.8 NNW 13 20 7 11 1017.7 - 0.0
16/10:30am 24.7 22.6 12.3 46 7.2 NW 15 24 8 13 1018.3 - 0.0
16/10:00am 23.3 21.6 12.6 51 6.2 NW 13 20 7 11 1018.7 - 0.0
16/09:30am 21.7 20.1 12.8 57 5.1 WNW 13 20 7 11 1019.1 - 0.0
16/09:00am 20.7 18.7 12.7 60 4.6 NW 15 20 8 11 1019.2 1018.7 0.0
16/08:30am 19.7 19.3 12.9 65 3.9 WNW 7 13 4 7 1019.2 - 0.0
16/08:00am 17.6 17.5 10.7 64 3.7 N 2 7 1 4 1019.4 - 0.0
16/07:30am 15.4 13.9 9.3 67 3.2 ESE 7 9 4 5 1019.1 - 0.0
16/07:00am 12.0 9.7 7.5 74 2.2 E 9 13 5 7 1018.9 - 0.0
16/06:30am 9.8 7.7 6.5 80 1.6 ESE 7 9 4 5 1018.8 - 0.0
16/06:00am 8.4 5.7 5.5 82 1.3 E 9 9 5 5 1018.4 1017.9 0.0
16/05:30am 7.5 5.0 4.6 82 1.3 E 7 9 4 5 1018.2 - 0.0
16/05:00am 7.7 5.3 4.5 80 1.4 ESE 6 7 3 4 1017.9 - 0.0
16/04:30am 8.5 6.1 5.1 79 1.5 E 7 9 4 5 1017.4 - 0.0
16/04:00am 8.6 7.4 4.8 77 1.7 E 0 9 0 5 1017.2 - 0.0
16/03:30am 8.6 7.1 5.0 78 1.6 ESE 2 7 1 4 1017.0 - 0.0
16/03:00am 8.6 7.6 5.4 80 1.5 CALM 0 0 0 0 1016.9 1016.5 0.0
16/02:30am 9.1 8.0 5.3 77 1.7 CALM 0 0 0 0 1016.7 - 0.0
16/02:00am 9.0 7.9 5.2 77 1.7 CALM 0 0 0 0 1016.8 - 0.0
16/01:30am 10.0 9.0 5.8 75 2.0 CALM 0 0 0 0 1017.0 - 0.0
16/01:00am 10.3 9.4 5.9 74 2.1 CALM 0 0 0 0 1016.9 - 0.0
16/12:30am 9.6 8.5 5.0 73 2.1 CALM 0 0 0 0 1017.0 - 0.0
16/12:00am 10.9 10.0 5.9 71 2.3 WNW 0 0 0 0 1017.2 1016.8 0.0
 
Date/Time
EST
Temp
°C
App
Temp
°C
Dew
Point
Rel
Hum
%
Delta-T
°C
Wind Press
QNH
hPa
Press
MSL
hPa
Rain
since 9 am
mm
Dir
 
Spd
km/h
Gust
km/h
Spd
kts
Gust
kts
15/11:30pm 10.9 9.7 4.8 66 2.8 CALM 0 0 0 0 1017.2 - 0.0
15/11:00pm 12.4 10.9 4.9 60 3.5 WNW 2 6 1 3 1017.2 - 0.0
15/10:30pm 13.4 11.0 4.3 54 4.2 N 6 7 3 4 1017.3 - 0.0
15/10:00pm 15.5 14.5 5.4 51 4.9 CALM 0 0 0 0 1017.4 - 0.0
15/09:30pm 19.3 17.3 6.1 42 6.6 NNW 6 15 3 8 1017.4 - 0.0
15/09:00pm 16.5 14.1 5.2 47 5.4 NW 7 9 4 5 1017.2 1016.8 0.0
15/08:30pm 19.0 16.9 6.5 44 6.3 S 7 9 4 5 1017.2 - 0.0
15/08:00pm 20.4 16.8 6.7 41 7.0 NE 15 20 8 11 1016.9 - 0.0
15/07:30pm 21.2 16.9 7.8 42 7.0 NE 20 28 11 15 1016.5 - 0.0
15/07:00pm 21.7 18.0 7.9 41 7.3 NNE 17 24 9 13 1016.2 - 0.0
15/06:30pm 23.1 18.8 8.0 38 8.0 NE 20 30 11 16 1015.8 - 0.0
15/06:00pm 24.7 21.4 4.5 27 10.2 NNE 11 19 6 10 1015.4 1014.9 0.0
15/05:30pm 25.6 22.4 5.2 27 10.5 N 11 17 6 9 1015.1 - 0.0
15/05:00pm 25.9 22.3 4.9 26 10.7 NW 13 17 7 9 1014.9 - 0.0
15/04:30pm 26.2 23.6 4.1 24 11.2 N 7 11 4 6 1014.7 - 0.0
15/04:00pm 27.0 24.6 4.1 23 11.6 NE 6 9 3 5 1014.6 - 0.0
15/03:30pm 26.4 23.0 4.2 24 11.2 NW 11 17 6 9 1014.6 - 0.0
15/03:00pm 27.5 24.6 4.5 23 11.8 SW 9 19 5 10 1014.7 1014.2 0.0
15/02:30pm 27.9 25.4 4.9 23 11.9 W 7 15 4 8 1014.9 - 0.0
15/02:00pm 27.0 24.2 5.3 25 11.2 NNE 9 15 5 8 1015.2 - 0.0
15/01:30pm 26.1 23.7 5.1 26 10.8 WSW 7 13 4 7 1015.7 - 0.0
15/01:00pm 27.7 25.2 6.5 26 11.3 N 9 17 5 9 1016.1 - 0.0
15/12:30pm 26.2 22.9 6.3 28 10.4 W 13 20 7 11 1016.9 - 0.0
15/12:00pm 25.2 22.7 6.4 30 9.8 WNW 9 19 5 10 1017.6 1017.2 0.0
15/11:30am 24.8 22.4 7.0 32 9.4 S 9 15 5 8 1018.2 - 0.0
15/11:00am 24.1 21.8 7.3 34 8.9 WNW 9 17 5 9 1018.7 - 0.0
15/10:30am 23.5 21.4 8.4 38 8.1 W 9 15 5 8 1019.3 - 0.0
15/10:00am 21.6 19.9 8.5 43 7.0 S 7 13 4 7 1019.9 - 0.0
15/09:30am 21.2 20.0 9.4 47 6.4 ESE 6 9 3 5 1020.3 - 0.0
15/09:00am 19.8 19.1 10.0 53 5.3 NE 4 7 2 4 1020.6 1020.1 0.0
15/08:30am 18.5 17.6 10.8 61 4.2 ESE 6 11 3 6 1020.7 - 0.0
15/08:00am 15.3 14.0 10.1 71 2.7 E 7 11 4 6 1020.7 - 0.0
15/07:30am 12.8 11.5 9.8 82 1.6 E 7 7 4 4 1020.6 - 0.0
15/07:00am 10.8 10.6 8.9 88 1.0 CALM 0 6 0 3 1020.3 - 0.0
15/06:30am 7.8 5.8 6.9 94 0.4 E 7 11 4 6 1020.0 - 0.0
15/06:00am 6.5 5.4 5.3 92 0.5 CALM 0 0 0 0 1019.8 1019.3 0.0
15/05:30am 7.2 5.2 6.3 94 0.4 ESE 6 9 3 5 1019.5 - 0.0
15/05:00am 6.8 5.4 5.4 91 0.6 E 2 6 1 3 1019.4 - 0.0
15/04:30am 7.6 5.1 6.4 92 0.6 ESE 9 11 5 6 1019.1 - 0.0
15/04:00am 7.6 5.4 6.4 92 0.6 ESE 7 9 4 5 1018.9 - 0.0
15/03:30am 8.7 6.7 7.3 91 0.7 E 7 9 4 5 1018.9 - 0.0
15/03:00am 8.7 6.7 7.3 91 0.7 E 7 9 4 5 1019.0 1018.5 0.0
15/02:30am 9.0 8.4 7.3 89 0.8 CALM 0 7 0 4 1019.0 - 0.0
15/02:00am 8.6 6.6 6.4 86 1.0 S 6 7 3 4 1019.2 - 0.0
15/01:30am 9.5 8.7 6.6 82 1.4 CALM 0 4 0 2 1019.2 - 0.0
15/01:00am 10.3 8.6 7.7 84 1.3 ENE 6 7 3 4 1019.5 - 0.0
15/12:30am 10.3 8.5 7.9 85 1.2 E 7 9 4 5 1019.7 - 0.0
15/12:00am 10.0 9.1 7.8 86 1.1 E 2 7 1 4 1019.9 1019.4 0.0
 
Date/Time
EST
Temp
°C
App
Temp
°C
Dew
Point
Rel
Hum
%
Delta-T
°C
Wind Press
QNH
hPa
Press
MSL
hPa
Rain
since 9 am
mm
Dir
 
Spd
km/h
Gust
km/h
Spd
kts
Gust
kts
14/11:30pm 10.5 10.0 7.9 84 1.3 CALM 0 0 0 0 1020.0 - 0.0
14/11:00pm 11.2 10.8 8.1 81 1.5 CALM 0 0 0 0 1020.0 - 0.0
14/10:30pm 12.0 11.3 8.7 80 1.7 E 2 7 1 4 1020.0 - 0.0
14/10:00pm 13.4 13.2 9.1 75 2.2 CALM 0 6 0 3 1020.1 - 0.0
14/09:30pm 14.4 14.3 9.4 72 2.6 CALM 0 0 0 0 1020.1 - 0.0
14/09:00pm 15.7 15.8 10.0 69 3.0 CALM 0 6 0 3 1020.0 1019.5 0.0
14/08:30pm 17.4 16.8 10.5 64 3.7 NE 4 11 2 6 1019.8 - 0.0
14/08:00pm 18.8 17.5 11.1 61 4.2 E 9 15 5 8 1019.5 - 0.0
14/07:30pm 18.8 17.0 9.6 55 4.9 E 9 11 5 6 1019.3 - 0.0
14/07:00pm 20.7 18.3 9.9 50 5.9 NE 13 20 7 11 1018.9 - 0.0
14/06:30pm 19.8 18.0 9.4 51 5.6 NE 9 11 5 6 1018.5 - 0.0
14/06:00pm 21.3 18.9 9.9 48 6.2 NE 13 17 7 9 1018.2 1017.7 0.0
14/05:30pm 22.4 19.3 10.2 46 6.7 NE 17 22 9 12 1018.0 - 0.0
14/05:00pm 23.2 20.0 9.9 43 7.3 NNE 17 24 9 13 1017.7 - 0.0
14/04:30pm 24.3 20.6 10.2 41 7.8 NE 20 28 11 15 1017.6 - 0.0
14/04:00pm 24.3 21.4 10.9 43 7.5 NNE 17 24 9 13 1017.6 - 0.0
14/03:30pm 23.8 20.9 9.8 41 7.7 NE 15 28 8 15 1017.6 - 0.0
14/03:00pm 25.7 23.1 7.8 32 9.6 NNE 11 17 6 9 1017.7 1017.3 0.0
14/02:30pm 24.5 22.2 7.6 34 9.0 NNE 9 17 5 9 1018.0 - 0.0
14/02:00pm 25.4 22.9 8.0 33 9.4 ENE 11 24 6 13 1018.2 - 0.0
14/01:30pm 25.9 22.4 7.0 30 10.0 ENE 15 20 8 11 1018.6 - 0.0
14/01:00pm 26.6 22.9 8.1 31 10.0 ENE 17 26 9 14 1019.1 - 0.0
14/12:30pm 25.7 22.4 8.2 33 9.5 SE 15 24 8 13 1019.5 - 0.0
14/12:00pm 25.4 22.1 8.0 33 9.3 ESE 15 26 8 14 1019.8 1019.3 0.0
14/11:30am 25.0 21.4 8.5 35 8.9 ESE 17 26 9 14 1020.3 - 0.0
14/11:00am 25.2 21.9 9.5 37 8.7 E 17 39 9 21 1020.6 - 0.0
14/10:30am 23.5 20.2 9.5 41 7.7 SE 17 28 9 15 1021.2 - 0.0
14/10:00am 23.4 20.5 11.1 46 6.9 SE 17 20 9 11 1021.4 - 0.0
14/09:30am 21.9 18.5 11.3 51 5.9 ESE 20 33 11 18 1021.8 - 0.0
14/09:00am 21.2 18.2 12.1 56 5.1 ESE 19 33 10 18 1021.7 1021.3 0.0
14/08:30am 19.1 16.5 12.1 64 3.9 ESE 17 26 9 14 1021.8 - 0.0
14/08:00am 17.3 15.9 12.2 72 2.8 SE 11 15 6 8 1022.0 - 0.0
14/07:30am 14.5 13.9 11.6 83 1.6 S 6 13 3 7 1021.9 - 0.0
14/07:00am 11.6 11.7 10.2 91 0.7 CALM 0 0 0 0 1021.7 - 0.0
14/06:30am 8.9 8.1 8.1 95 0.4 S 2 6 1 3 1021.5 - 0.0
14/06:15am 8.7 8.2 7.9 95 0.4 CALM 0 0 0 0 1021.4 - 0.0
14/06:00am 7.6 6.3 6.1 90 0.7 SSE 2 6 1 3 1021.3 1020.9 0.0
14/05:30am 9.8 8.8 9.0 95 0.4 E 4 6 2 3 1021.1 - 0.0
14/05:00am 8.7 7.0 7.5 92 0.6 E 6 7 3 4 1021.0 - 0.0
14/04:30am 8.8 6.5 7.6 92 0.6 E 9 11 5 6 1020.7 - 0.0
14/04:00am 8.2 6.1 6.8 91 0.7 ENE 7 9 4 5 1020.6 - 0.0
14/03:30am 8.7 6.8 7.5 92 0.6 SE 7 9 4 5 1020.6 - 0.0
14/03:00am 8.6 6.9 7.4 92 0.6 E 6 6 3 3 1020.8 1020.3 0.0
14/02:30am 7.5 5.3 5.3 86 1.0 SE 6 7 3 4 1021.3 - 0.0
14/02:00am 10.2 8.7 9.1 93 0.6 E 7 9 4 5 1021.6 - 0.0
14/01:30am 8.7 6.7 7.0 89 0.8 E 7 9 4 5 1022.0 - 0.0
14/01:00am 9.0 8.3 7.0 87 0.9 CALM 0 0 0 0 1022.3 - 0.0
14/12:30am 9.8 9.2 7.4 85 1.2 CALM 0 0 0 0 1022.3 - 0.0
14/12:00am 9.7 8.9 6.6 81 1.5 CALM 0 0 0 0 1022.4 1022.0 0.0
 
Date/Time
EST
Temp
°C
App
Temp
°C
Dew
Point
Rel
Hum
%
Delta-T
°C
Wind Press
QNH
hPa
Press
MSL
hPa
Rain
since 9 am
mm
Dir
 
Spd
km/h
Gust
km/h
Spd
kts
Gust
kts
13/11:30pm 10.1 9.4 7.0 81 1.5 CALM 0 0 0 0 1022.5 - 0.0

Other Formats:

Comma delimited format used in spreadsheet applications
http://www.bom.gov.au/fwo/IDQ60801/IDQ60801.94376.axf

JavaScript Object Notation format (JSON) in row-major order
http://www.bom.gov.au/fwo/IDQ60801/IDQ60801.94376.json